Kolmaarden Stroemsfors, Sweden

10:43 AM CET on March 06, 2015 (GMT +0100)
Krokek | Change Station
CLOSE
Current Station
Personal Weather Station
Location: Kolmården, Östergötlands län
Elevation: 161 ft
Nearby Weather Stations

Elev 161 ft 58.67 °N, 16.36 °E | Updated 6 seconds ago

Mostly Cloudy
Mostly Cloudy
39.2 °F
Feels Like 39 °F
N
0.7
Wind Variable Wind from SSW
Gusts 3.1 mph

Today
High -- | Low -- °F
--% Chance of Precip.
Yesterday
High -- | Low -- °F
Precip. -- in
6:37 AM 5:35 PM
Full, 100% visible
Pressure 30.12 in
Visibility 3.7 miles
Clouds Few 600 ft
Mostly Cloudy 1000 ft
Windchill 39 °F
Dew Point 37 °F
Humidity 93%
Rainfall in
Snow Depth Not available.
UV 1 out of 12
Pollen Not available.
Air Quality Not available.
Flu Activity Not available.
METAR ESSP 060920Z 24008KT 6000 BR FEW006 BKN010 05/05 Q1020 R27/19//95

More Conditions Fewer Conditions

Pressure 30.12 in
Visibility 3.7 miles
Clouds Few 600 ft
Mostly Cloudy 1000 ft
Windchill 39 °F
Dew Point 37 °F
Humidity 93%
Rainfall in
Snow Depth Not available.
UV 1 out of 12
Pollen Not available.
Air Quality Not available.
Flu Activity Not available.
METAR ESSP 060920Z 24008KT 6000 BR FEW006 BKN010 05/05 Q1020 R27/19//95

More Conditions Fewer Conditions

10-Day Weather Forecast

Almanac

Astronomy

Mar. 06, 2015 Rise Set
Actual Time
Civil Twilight
Nautical Twilight
Astronomical Twilight
Moon
Length of Visible Light
Length of Day
Tomorrow will be .
, % of the Moon is Illuminated

Today's Extremes

Country Highs Country Lows

Community

WunderPhotos

Upload Photos

1,803,213 photos uploaded!

WunderBlogs® & News

Nearby

Air Quality

  Air Quality AQ Index Pollutant
Not available.

Snow Depth

Station Depth Elevation

Earthquake Activity

City Distance Mag. Time & Date
Minimum magnitude displayed is 2.5.

Coastal Water Temperatures

Place Temperature

Nearby Weather Stations